Pagina principale
METAR-TAF:

METAR-TAF

Aeroporti :

Ancona, Italia

latitudine: 43-37N, longitudine: 013-22E, altezza: 12 m

Osservazione

Il bollettino è stato emesso 30 minuti fa, alle 12:50 UTC
Vento 3 kt da ovest/sud-ovest, variando fra sud e ovest
Temperature 12°C
Umidità 58%
Pressione 1015 hPa
Visibilità 10 km o più
Nuvoloso ad un'altezza di 6000 ft

METAR: LIPY 171250Z 24003KT 180V280 9999 BKN060 12/04 Q1015

Ora: 14:20 (13:20 UTC)

Previsione

Il bollettino è stato emesso 2 ore e 20 minuti fa, alle 11:00 UTC
Previsione valida dal 17 alle 12 UTC al 18 alle 12 UTC
Vento 9 kt da sud-ovest
Visibilità 10 km o più
nessuna nube inferiore a 1500 m e nessun cumulonembo

TAF: LIPY 171100Z 1712/1812 23009KT CAVOK

Osservazioni e previsioni meteorologiche di più di 4000 aeroporti (messaggi METAR e TAF).

Le stazioni disponibili sono rappresentate dai dischi gialli e rossi sulla carta.

Puntare il mouse per vedere il nome della stazione.

Clicca sopra per visualizzare le osservazioni e previsioni meteorologiche.

Per cambiare la mappa : fare clic sui pulsanti verdi con una croce nera per ingrandire, il pulsante verde con un trattino per diminuire, o sulla freccia verde per le mappe adiacenti.


METAR-TAF: